createdAt,value
2019-02-14T00:00:29.391Z,101945.37
2019-02-14T00:03:33.949Z,101947.31
2019-02-14T00:06:37.308Z,101957.78
2019-02-14T00:09:40.617Z,101963.79
2019-02-14T00:12:43.596Z,101969.94
2019-02-14T00:15:47.265Z,101964.30
2019-02-14T00:18:50.529Z,101967.86
2019-02-14T00:21:54.152Z,101966.97
2019-02-14T00:24:57.116Z,101969.89
2019-02-14T00:28:00.077Z,101972.71
2019-02-14T00:31:03.020Z,101969.03
2019-02-14T00:34:06.327Z,101962.11
2019-02-14T00:37:09.706Z,101967.80
2019-02-14T00:40:13.067Z,101976.28
2019-02-14T00:43:16.388Z,101980.52
2019-02-14T00:46:19.437Z,101981.33
2019-02-14T00:49:23.137Z,101983.67
2019-02-14T00:52:27.122Z,101972.37
2019-02-14T00:55:30.477Z,101973.05
2019-02-14T00:58:34.128Z,101977.25
2019-02-14T01:01:37.552Z,101976.36
2019-02-14T01:04:40.538Z,101978.01
2019-02-14T01:07:44.417Z,101973.05
2019-02-14T01:10:47.387Z,101964.02
2019-02-14T01:13:50.355Z,101965.73
2019-02-14T01:16:53.662Z,101963.59
2019-02-14T01:19:57.042Z,101957.58
2019-02-14T01:23:00.423Z,101950.73
2019-02-14T01:26:03.676Z,101952.00
2019-02-14T01:29:06.614Z,101957.06
2019-02-14T01:32:09.674Z,101951.31
2019-02-14T01:35:13.353Z,101943.99
2019-02-14T01:38:16.696Z,101946.19
2019-02-14T01:41:19.981Z,101944.36
2019-02-14T01:44:22.923Z,101953.13
2019-02-14T01:47:25.907Z,101952.09
2019-02-14T01:50:28.853Z,101951.94
2019-02-14T01:53:31.848Z,101942.00
2019-02-14T01:56:34.781Z,101948.56
2019-02-14T01:59:37.742Z,101942.43
2019-02-14T02:02:41.054Z,101937.11
2019-02-14T02:05:50.621Z,101934.57
2019-02-14T02:08:48.957Z,101935.69
2019-02-14T02:11:52.348Z,101928.58
2019-02-14T02:14:56.004Z,101938.42
2019-02-14T02:18:00.040Z,101937.80
2019-02-14T02:21:03.000Z,101937.05
2019-02-14T02:24:06.726Z,101945.17
2019-02-14T02:27:10.012Z,101947.53
2019-02-14T02:30:14.638Z,101951.89
2019-02-14T02:33:17.937Z,101953.89
2019-02-14T02:36:21.688Z,101955.13
2019-02-14T02:39:24.629Z,101945.92
2019-02-14T02:42:27.612Z,101944.04
2019-02-14T02:45:31.323Z,101944.06
2019-02-14T02:48:35.049Z,101938.84
2019-02-14T02:51:38.008Z,101945.03
2019-02-14T02:54:40.996Z,101941.34
2019-02-14T02:57:44.380Z,101943.73
2019-02-14T03:00:48.495Z,101945.45
2019-02-14T03:03:52.262Z,101944.48
2019-02-14T03:06:55.621Z,101935.39
2019-02-14T03:09:58.984Z,101936.28
2019-02-14T03:13:03.115Z,101936.08
2019-02-14T03:16:07.047Z,101943.73
2019-02-14T03:19:10.340Z,101945.58
2019-02-14T03:22:13.693Z,101936.14
2019-02-14T03:25:17.035Z,101941.05
2019-02-14T03:28:19.990Z,101934.38
2019-02-14T03:31:23.253Z,101933.52
2019-02-14T03:34:26.919Z,101948.58
2019-02-14T03:37:30.282Z,101951.22
2019-02-14T03:40:33.917Z,101946.83
2019-02-14T03:43:37.269Z,101948.99
2019-02-14T03:46:40.216Z,101946.82
2019-02-14T03:49:43.211Z,101950.22
2019-02-14T03:52:46.417Z,101950.75
2019-02-14T03:55:50.077Z,101951.86
2019-02-14T03:58:53.032Z,101955.52
2019-02-14T04:01:55.974Z,101950.19
2019-02-14T04:04:59.264Z,101945.92
2019-02-14T04:08:02.879Z,101952.55
2019-02-14T04:11:06.144Z,101948.33
2019-02-14T04:14:09.471Z,101947.83
2019-02-14T04:17:12.528Z,101949.76
2019-02-14T04:20:15.823Z,101955.13
2019-02-14T04:23:20.280Z,101961.73
2019-02-14T04:26:23.249Z,101959.12
2019-02-14T04:29:26.579Z,101958.70
2019-02-14T04:32:30.023Z,101959.05
2019-02-14T04:35:33.692Z,101961.77
2019-02-14T04:38:36.944Z,101964.52
2019-02-14T04:41:39.931Z,101968.85
2019-02-14T04:44:42.890Z,101969.97
2019-02-14T04:47:46.524Z,101966.52
2019-02-14T04:50:49.814Z,101973.69
2019-02-14T04:53:53.878Z,101973.20
2019-02-14T04:56:56.836Z,101970.91
2019-02-14T05:00:00.322Z,101968.64
2019-02-14T05:03:03.687Z,101969.81
2019-02-14T05:06:06.664Z,101971.31
2019-02-14T05:09:10.204Z,101973.30
2019-02-14T05:12:13.518Z,101973.52
2019-02-14T05:15:17.900Z,101971.83
2019-02-14T05:18:20.839Z,101961.68
2019-02-14T05:21:23.796Z,101974.32
2019-02-14T05:24:26.735Z,101976.23
2019-02-14T05:27:29.690Z,101976.56
2019-02-14T05:30:32.652Z,101980.95
2019-02-14T05:33:35.947Z,101976.37
2019-02-14T05:36:39.222Z,101980.78
2019-02-14T05:39:42.876Z,101981.38
2019-02-14T05:42:46.252Z,101978.95
2019-02-14T05:45:49.454Z,101986.19
2019-02-14T05:48:52.789Z,101991.30
2019-02-14T05:51:56.452Z,101997.11
2019-02-14T05:54:59.774Z,101997.14
2019-02-14T05:58:03.131Z,101989.70
2019-02-14T06:01:06.169Z,102000.28
2019-02-14T06:04:09.138Z,102003.86
2019-02-14T06:07:12.108Z,102009.62
2019-02-14T06:10:15.452Z,102008.25
2019-02-14T06:13:18.412Z,102017.43
2019-02-14T06:16:23.332Z,102019.80
2019-02-14T06:19:26.425Z,102021.38
2019-02-14T06:22:29.487Z,102020.60
2019-02-14T06:25:32.451Z,102018.41
2019-02-14T06:28:37.329Z,102022.28
2019-02-14T06:31:40.406Z,102021.77
2019-02-14T06:34:43.759Z,102033.13
2019-02-14T06:37:47.105Z,102032.75
2019-02-14T06:40:51.167Z,102038.80
2019-02-14T06:43:54.460Z,102041.84
2019-02-14T06:46:57.408Z,102045.59
2019-02-14T06:50:00.373Z,102042.32
2019-02-14T06:53:04.125Z,102041.78
2019-02-14T06:56:07.898Z,102042.13
2019-02-14T06:59:11.527Z,102040.64
2019-02-14T07:02:14.764Z,102041.31
2019-02-14T07:05:18.145Z,102043.58
2019-02-14T07:08:21.080Z,102055.12
2019-02-14T07:11:24.496Z,102063.05
2019-02-14T07:14:27.721Z,102058.58
2019-02-14T07:17:30.670Z,102047.36
2019-02-14T07:20:33.983Z,102045.30
2019-02-14T07:23:37.361Z,102044.17
2019-02-14T07:26:40.659Z,102046.97
2019-02-14T07:29:44.352Z,102060.80
2019-02-14T07:32:47.315Z,102060.87
2019-02-14T07:35:50.590Z,102068.23
2019-02-14T07:38:53.540Z,102071.64
2019-02-14T07:41:56.532Z,102067.00
2019-02-14T07:45:00.283Z,102071.88
2019-02-14T07:48:03.600Z,102068.79
2019-02-14T07:51:06.849Z,102070.68
2019-02-14T07:54:10.145Z,102079.12
2019-02-14T07:57:13.100Z,102078.67
2019-02-14T08:00:16.348Z,102081.56
2019-02-14T08:03:19.290Z,102076.64
2019-02-14T08:06:22.585Z,102069.86
2019-02-14T08:09:25.527Z,102063.11
2019-02-14T08:12:28.517Z,102056.92
2019-02-14T08:15:31.889Z,102054.50
2019-02-14T08:18:34.948Z,102046.72
2019-02-14T08:21:38.289Z,102049.78
2019-02-14T08:24:41.238Z,102048.52
2019-02-14T08:27:44.538Z,102057.02
2019-02-14T08:30:47.517Z,102068.91
2019-02-14T08:33:50.906Z,102067.87
2019-02-14T08:36:54.242Z,102062.62
2019-02-14T08:39:57.172Z,102062.23
2019-02-14T08:43:01.110Z,102065.77
2019-02-14T08:46:04.407Z,102055.07
2019-02-14T08:49:07.718Z,102045.05
2019-02-14T08:52:10.793Z,102048.46
2019-02-14T08:55:14.148Z,102047.67
2019-02-14T08:58:18.599Z,102057.66
2019-02-14T09:01:21.964Z,102053.70
2019-02-14T09:04:24.938Z,102063.63
2019-02-14T09:07:28.236Z,102059.31
2019-02-14T09:10:31.181Z,102050.25
2019-02-14T09:13:35.046Z,102047.11
2019-02-14T09:16:38.369Z,102060.28
2019-02-14T09:19:41.343Z,102055.41
2019-02-14T09:22:44.308Z,102057.32
2019-02-14T09:25:47.666Z,102054.25
2019-02-14T09:28:51.009Z,102051.45
2019-02-14T09:31:54.676Z,102053.37
2019-02-14T09:34:57.750Z,102055.75
2019-02-14T09:38:03.356Z,102061.77
2019-02-14T09:41:05.573Z,102062.62
2019-02-14T09:44:08.566Z,102056.64
2019-02-14T09:47:12.209Z,102063.87
2019-02-14T09:50:15.291Z,102057.89
2019-02-14T09:53:18.240Z,102062.23
2019-02-14T09:56:21.194Z,102059.17
2019-02-14T09:59:24.489Z,102063.70
2019-02-14T10:02:27.784Z,102059.06
2019-02-14T10:05:31.047Z,102059.55
2019-02-14T10:08:33.984Z,102064.13
2019-02-14T10:11:36.961Z,102060.58
2019-02-14T10:14:41.217Z,102061.80
2019-02-14T10:17:44.563Z,102054.62
2019-02-14T10:20:47.529Z,102058.47
2019-02-14T10:23:50.532Z,102051.47
2019-02-14T10:26:54.188Z,102060.50
2019-02-14T10:29:57.712Z,102056.43
2019-02-14T10:33:00.694Z,102057.98
2019-02-14T10:36:04.489Z,102058.03
2019-02-14T10:39:08.717Z,102056.19
2019-02-14T10:42:12.208Z,102048.47
2019-02-14T10:45:16.239Z,102054.13
2019-02-14T10:48:20.031Z,102049.20
2019-02-14T10:51:22.997Z,102046.77
2019-02-14T10:54:26.371Z,102039.74
2019-02-14T10:57:30.134Z,102028.62
2019-02-14T11:00:33.178Z,102026.83
2019-02-14T11:03:36.551Z,102017.55
2019-02-14T11:06:39.514Z,102024.29
2019-02-14T11:09:42.793Z,102021.47
2019-02-14T11:12:45.876Z,102020.64
2019-02-14T11:15:48.808Z,102014.23
2019-02-14T11:18:52.149Z,102018.23
2019-02-14T11:21:55.579Z,102016.66
2019-02-14T11:24:59.670Z,102026.33
2019-02-14T11:28:02.629Z,102022.87
2019-02-14T11:31:05.572Z,102020.08
2019-02-14T11:34:08.563Z,102021.19
2019-02-14T11:37:11.829Z,102021.38
2019-02-14T11:40:15.463Z,102026.61
2019-02-14T11:43:18.450Z,102033.80
2019-02-14T11:46:21.398Z,102029.55
2019-02-14T11:49:24.371Z,102020.27
2019-02-14T11:52:27.729Z,102028.30
2019-02-14T11:55:31.016Z,102017.98
2019-02-14T11:58:34.463Z,102028.79
2019-02-14T12:01:37.705Z,102030.64
2019-02-14T12:04:41.032Z,102018.14
2019-02-14T12:07:44.011Z,102010.56
2019-02-14T12:10:47.306Z,102013.45
2019-02-14T12:13:50.721Z,102003.11
2019-02-14T12:16:54.114Z,102000.92
2019-02-14T12:19:57.476Z,101997.19
2019-02-14T12:23:00.441Z,101992.97
2019-02-14T12:26:03.388Z,101994.59
2019-02-14T12:29:06.634Z,102000.78
2019-02-14T12:32:09.618Z,101997.47
2019-02-14T12:35:12.775Z,102001.12
2019-02-14T12:38:15.744Z,101987.90
2019-02-14T12:41:18.690Z,101983.75
2019-02-14T12:44:22.808Z,101976.61
2019-02-14T12:47:25.755Z,101977.44
2019-02-14T12:50:29.245Z,101976.46
2019-02-14T12:53:32.176Z,101972.53
2019-02-14T12:56:36.245Z,101961.80
2019-02-14T12:59:39.212Z,101964.23
2019-02-14T13:02:43.558Z,101961.58
2019-02-14T13:05:46.539Z,101958.46
2019-02-14T13:08:50.214Z,101954.00
2019-02-14T13:11:53.447Z,101954.39
2019-02-14T13:14:56.742Z,101953.39
2019-02-14T13:17:59.691Z,101956.47
2019-02-14T13:21:03.083Z,101946.00
2019-02-14T13:24:06.387Z,101957.12
2019-02-14T13:27:09.677Z,101952.69
2019-02-14T13:30:16.849Z,101951.38
2019-02-14T13:33:20.289Z,101942.05
2019-02-14T13:36:23.234Z,101942.98
2019-02-14T13:39:29.531Z,101945.18
2019-02-14T13:42:31.064Z,101942.48
2019-02-14T13:45:36.188Z,101943.35
2019-02-14T13:48:39.489Z,101944.30
2019-02-14T13:51:42.861Z,101943.22
2019-02-14T13:54:45.804Z,101941.94
2019-02-14T13:57:49.807Z,101942.73
2019-02-14T14:00:52.759Z,101939.13
2019-02-14T14:03:55.729Z,101947.88
2019-02-14T14:06:58.696Z,101940.14
2019-02-14T14:10:01.670Z,101933.75
2019-02-14T14:13:05.201Z,101925.25
2019-02-14T14:16:08.737Z,101924.70
2019-02-14T14:19:12.055Z,101923.69
2019-02-14T14:22:15.359Z,101925.54
2019-02-14T14:25:18.436Z,101919.03
2019-02-14T14:28:21.700Z,101918.91
2019-02-14T14:31:25.330Z,101907.07
2019-02-14T14:34:28.966Z,101912.37
2019-02-14T14:37:31.949Z,101914.13
2019-02-14T14:40:34.916Z,101905.14
2019-02-14T14:43:55.180Z,101908.23
2019-02-14T14:47:05.925Z,101904.28
2019-02-14T14:50:09.084Z,101897.91
2019-02-14T14:53:12.081Z,101901.04
2019-02-14T14:56:15.035Z,101899.14
2019-02-14T14:59:18.013Z,101905.56
2019-02-14T15:02:20.971Z,101900.19
2019-02-14T15:05:24.313Z,101901.46
2019-02-14T15:08:27.261Z,101905.63
2019-02-14T15:11:30.656Z,101908.44
2019-02-14T15:14:33.636Z,101899.07
2019-02-14T15:17:37.385Z,101896.55
2019-02-14T15:20:40.354Z,101895.64
2019-02-14T15:23:43.732Z,101895.25
2019-02-14T15:26:46.700Z,101895.17
2019-02-14T15:29:50.091Z,101893.68
2019-02-14T15:32:53.058Z,101889.72
2019-02-14T15:35:56.795Z,101888.30
2019-02-14T15:38:59.792Z,101882.49
2019-02-14T15:42:02.772Z,101876.29
2019-02-14T15:45:05.789Z,101871.72
2019-02-14T15:48:09.242Z,101866.30
2019-02-14T15:51:12.194Z,101869.72
2019-02-14T15:54:15.140Z,101865.64
2019-02-14T15:57:18.763Z,101874.48
2019-02-14T16:00:23.682Z,101871.77
2019-02-14T16:03:26.660Z,101879.48
2019-02-14T16:06:30.325Z,101884.66
2019-02-14T16:09:36.527Z,101882.14
2019-02-14T16:12:41.341Z,101877.55
2019-02-14T16:15:44.635Z,101882.20
2019-02-14T16:18:49.145Z,101877.93
2019-02-14T16:21:54.271Z,101879.81
2019-02-14T16:24:57.362Z,101880.28
2019-02-14T16:28:00.625Z,101876.00
2019-02-14T16:31:03.596Z,101874.13
2019-02-14T16:34:06.572Z,101881.02
2019-02-14T16:37:09.631Z,101879.61
2019-02-14T16:40:12.601Z,101880.75
2019-02-14T16:43:15.988Z,101883.84
2019-02-14T16:46:18.948Z,101881.13
2019-02-14T16:49:22.669Z,101885.84
2019-02-14T16:52:26.730Z,101890.55
2019-02-14T16:55:30.032Z,101884.81
2019-02-14T16:58:33.111Z,101890.91
2019-02-14T17:01:36.070Z,101885.61
2019-02-14T17:04:39.039Z,101881.94
2019-02-14T17:07:41.981Z,101884.01
2019-02-14T17:10:45.349Z,101882.97
2019-02-14T17:13:48.690Z,101884.67
2019-02-14T17:16:51.629Z,101888.90
2019-02-14T17:19:54.642Z,101888.88
2019-02-14T17:22:57.600Z,101886.26
2019-02-14T17:26:00.928Z,101889.55
2019-02-14T17:29:03.921Z,101891.41
2019-02-14T17:32:06.877Z,101894.48
2019-02-14T17:35:11.065Z,101891.37
2019-02-14T17:38:14.541Z,101895.63
2019-02-14T17:41:17.781Z,101894.96
2019-02-14T17:44:21.952Z,101895.81
2019-02-14T17:47:25.748Z,101895.81
2019-02-14T17:50:30.636Z,101898.91
2019-02-14T17:53:33.910Z,101899.59
2019-02-14T17:56:36.917Z,101903.77
2019-02-14T17:59:40.902Z,101899.50
2019-02-14T18:02:44.218Z,101902.02
2019-02-14T18:05:47.183Z,101896.50
2019-02-14T18:08:51.242Z,101896.50
2019-02-14T18:11:54.797Z,101897.71
2019-02-14T18:14:59.097Z,101898.09
2019-02-14T18:18:02.412Z,101897.91
2019-02-14T18:21:05.401Z,101900.50
2019-02-14T18:24:08.345Z,101891.98
2019-02-14T18:27:11.663Z,101884.87
2019-02-14T18:30:14.632Z,101886.88
2019-02-14T18:33:17.697Z,101885.97
2019-02-14T18:36:22.576Z,101885.97
2019-02-14T18:39:25.909Z,101893.25
2019-02-14T18:42:30.322Z,101897.28
2019-02-14T18:45:33.771Z,101894.23
2019-02-14T18:48:36.827Z,101888.02
2019-02-14T18:51:40.400Z,101892.91
2019-02-14T18:54:43.784Z,101889.70
2019-02-14T18:57:47.153Z,101887.44
2019-02-14T19:00:50.092Z,101881.72
2019-02-14T19:03:53.064Z,101883.80
2019-02-14T19:06:56.118Z,101883.13
2019-02-14T19:09:59.576Z,101880.98
2019-02-14T19:13:04.249Z,101885.68
2019-02-14T19:16:07.300Z,101879.67
2019-02-14T19:19:10.371Z,101879.31
2019-02-14T19:22:14.280Z,101882.05
2019-02-14T19:25:17.312Z,101877.47
2019-02-14T19:28:21.046Z,101874.05
2019-02-14T19:31:24.434Z,101872.38
2019-02-14T19:34:27.414Z,101870.42
2019-02-14T19:37:30.395Z,101863.23
2019-02-14T19:40:33.355Z,101867.55
2019-02-14T19:43:36.638Z,101866.27
2019-02-14T19:46:40.072Z,101858.92
2019-02-14T19:49:43.211Z,101858.45
2019-02-14T19:52:46.221Z,101858.05
2019-02-14T19:55:49.553Z,101847.09
2019-02-14T19:58:52.534Z,101852.73
2019-02-14T20:01:55.706Z,101851.59
2019-02-14T20:04:59.648Z,101851.48
2019-02-14T20:08:03.091Z,101847.73
2019-02-14T20:11:07.653Z,101850.17
2019-02-14T20:14:12.531Z,101844.66
2019-02-14T20:17:15.513Z,101837.49
2019-02-14T20:20:18.473Z,101837.02
2019-02-14T20:23:21.913Z,101843.16
2019-02-14T20:26:26.225Z,101835.33
2019-02-14T20:29:29.195Z,101840.34
2019-02-14T20:32:32.159Z,101835.28
2019-02-14T20:35:35.267Z,101841.16
2019-02-14T20:38:38.472Z,101845.92
2019-02-14T20:41:45.888Z,101837.71
2019-02-14T20:44:47.036Z,101840.28
2019-02-14T20:47:50.577Z,101840.44
2019-02-14T20:50:53.688Z,101840.78
2019-02-14T20:53:57.851Z,101837.93
2019-02-14T20:57:00.817Z,101832.80
2019-02-14T21:00:06.572Z,101834.67
2019-02-14T21:03:11.465Z,101835.22
2019-02-14T21:06:14.524Z,101834.09
2019-02-14T21:09:17.570Z,101828.84
2019-02-14T21:12:20.894Z,101828.14
2019-02-14T21:15:24.834Z,101821.91
2019-02-14T21:18:27.790Z,101826.45
2019-02-14T21:21:31.219Z,101824.02
2019-02-14T21:24:34.603Z,101820.96
2019-02-14T21:27:37.615Z,101827.52
2019-02-14T21:30:41.016Z,101829.74
2019-02-14T21:33:44.393Z,101832.11
2019-02-14T21:36:47.663Z,101831.41
2019-02-14T21:39:51.410Z,101834.91
2019-02-14T21:42:54.473Z,101829.06
2019-02-14T21:45:57.810Z,101829.41
2019-02-14T21:49:01.203Z,101835.46
2019-02-14T21:52:04.274Z,101827.24
2019-02-14T21:55:08.409Z,101821.16
2019-02-14T21:58:12.395Z,101825.30
2019-02-14T22:01:18.827Z,101820.00
2019-02-14T22:04:22.449Z,101821.16
2019-02-14T22:07:25.592Z,101820.70
2019-02-14T22:10:29.016Z,101813.95
2019-02-14T22:13:31.966Z,101816.83
2019-02-14T22:16:34.938Z,101817.48
2019-02-14T22:19:38.243Z,101812.49
2019-02-14T22:22:41.325Z,101815.98
2019-02-14T22:25:44.273Z,101824.73
2019-02-14T22:28:48.083Z,101817.29
2019-02-14T22:31:51.412Z,101817.33
2019-02-14T22:34:54.700Z,101816.55
2019-02-14T22:37:59.128Z,101809.98
2019-02-14T22:41:02.156Z,101814.12
2019-02-14T22:44:05.481Z,101815.83
2019-02-14T22:47:08.704Z,101822.57
2019-02-14T22:50:11.813Z,101825.52
2019-02-14T22:53:15.414Z,101822.52
2019-02-14T22:56:18.999Z,101818.48
2019-02-14T22:59:22.384Z,101823.31
2019-02-14T23:02:25.954Z,101822.81
2019-02-14T23:05:28.913Z,101823.02
2019-02-14T23:08:31.871Z,101817.78
2019-02-14T23:11:35.169Z,101819.25
2019-02-14T23:14:38.125Z,101823.41
2019-02-14T23:17:41.056Z,101817.63
2019-02-14T23:20:44.816Z,101820.70
2019-02-14T23:23:48.161Z,101807.06
2019-02-14T23:26:51.437Z,101821.28
2019-02-14T23:29:54.685Z,101821.39
2019-02-14T23:32:57.641Z,101826.47
2019-02-14T23:36:01.001Z,101823.31
2019-02-14T23:39:05.371Z,101818.81
2019-02-14T23:42:11.201Z,101823.69
2019-02-14T23:45:14.221Z,101823.83
2019-02-14T23:48:17.148Z,101821.68
2019-02-14T23:51:20.945Z,101820.66
2019-02-14T23:54:23.925Z,101827.75
2019-02-14T23:57:26.859Z,101834.88
